Wetterdaten: Woche 01.08.22 - 07.08.22 (KW31)
Datum Zeit Temp. 2m rel. Feuchte Luftdruck Regen Wind Richtung Sonne ET UV-Index Solar Taupunkt Ben
01.08.2022 00:00 20,1 C 85 % 1015,9 hPa 0,0 mm 1,0 km/h (0 Bft) O 0,00 h 0,0 mm 0,0 UV-I 0 W/m 17,5 C 6,7 km/h (2 Bft)
01.08.2022 01:00 20,3 C 81 % 1016,0 hPa 0,0 mm 4,8 km/h (1 Bft) NW 0,00 h 0,0 mm 0,0 UV-I 0 W/m 16,9 C 15,2 km/h (3 Bft)
01.08.2022 02:00 20,2 C 81 % 1016,1 hPa 0,0 mm 3,6 km/h (1 Bft) N-NW 0,00 h 0,0 mm 0,0 UV-I 0 W/m 16,8 C 12,0 km/h (2 Bft)
01.08.2022 03:00 19,6 C 83 % 1016,2 hPa 0,0 mm 4,6 km/h (1 Bft) N-NW 0,00 h 0,0 mm 0,0 UV-I 0 W/m 16,7 C 15,2 km/h (3 Bft)
01.08.2022 04:00 19,5 C 84 % 1016,0 hPa 0,0 mm 5,5 km/h (1 Bft) O 0,00 h 0,0 mm 0,0 UV-I 0 W/m 16,7 C 15,9 km/h (3 Bft)
01.08.2022 05:00 19,4 C 84 % 1016,0 hPa 0,0 mm 4,0 km/h (1 Bft) O 0,00 h 0,0 mm 0,0 UV-I 0 W/m 16,6 C 13,9 km/h (3 Bft)
01.08.2022 06:00 19,3 C 85 % 1016,2 hPa 0,0 mm 1,0 km/h (0 Bft) O 0,00 h 0,0 mm 0,0 UV-I 14 W/m 16,7 C 5,9 km/h (2 Bft)
01.08.2022 07:00 19,3 C 85 % 1016,6 hPa 0,0 mm 1,6 km/h (1 Bft) O 0,00 h 0,0 mm 0,4 UV-I 34 W/m 16,8 C 6,9 km/h (2 Bft)
01.08.2022 08:00 19,7 C 85 % 1016,7 hPa 0,0 mm 1,9 km/h (1 Bft) NW 0,00 h 0,0 mm 0,0 UV-I 119 W/m 17,0 C 7,4 km/h (2 Bft)
01.08.2022 09:00 20,4 C 82 % 1016,8 hPa 0,0 mm 1,3 km/h (1 Bft) NW 0,08 h 0,1 mm 0,0 UV-I 214 W/m 17,2 C 7,8 km/h (2 Bft)
01.08.2022 10:00 21,2 C 78 % 1017,0 hPa 0,0 mm 1,7 km/h (1 Bft) O 0,33 h 0,1 mm 0,0 UV-I 396 W/m 17,2 C 7,8 km/h (2 Bft)
01.08.2022 11:00 21,7 C 75 % 1017,3 hPa 0,0 mm 0,5 km/h (0 Bft) O 0,25 h 0,2 mm 0,0 UV-I 364 W/m 17,1 C 5,6 km/h (1 Bft)
01.08.2022 12:00 22,3 C 71 % 1017,3 hPa 0,0 mm 0,4 km/h (0 Bft) O 0,25 h 0,2 mm 0,0 UV-I 361 W/m 16,9 C 3,0 km/h (1 Bft)
01.08.2022 13:00 23,7 C 64 % 1017,0 hPa 0,0 mm 1,0 km/h (0 Bft) NW 0,50 h 0,2 mm 0,5 UV-I 567 W/m 16,6 C 7,6 km/h (2 Bft)
01.08.2022 14:00 23,9 C 61 % 1016,9 hPa 0,0 mm 0,3 km/h (0 Bft) NW 0,25 h 0,3 mm 0,0 UV-I 363 W/m 15,9 C 3,9 km/h (1 Bft)
01.08.2022 15:00 24,8 C 53 % 1016,8 hPa 0,0 mm 0,4 km/h (0 Bft) NW 0,75 h 0,2 mm 0,0 UV-I 497 W/m 14,4 C 4,6 km/h (1 Bft)
01.08.2022 16:00 24,8 C 53 % 1016,8 hPa 0,0 mm 0,1 km/h (0 Bft) N 0,75 h 0,3 mm 0,0 UV-I 429 W/m 14,6 C 1,8 km/h (1 Bft)
01.08.2022 17:00 24,3 C 58 % 1017,0 hPa 0,0 mm 0,0 km/h (0 Bft) N 0,50 h 0,2 mm 0,0 UV-I 368 W/m 15,4 C 0,2 km/h (0 Bft)
01.08.2022 18:00 24,1 C 58 % 1017,1 hPa 0,0 mm 0,0 km/h (0 Bft) N 0,67 h 0,2 mm 0,0 UV-I 300 W/m 15,4 C 0,4 km/h (0 Bft)
01.08.2022 19:00 23,4 C 61 % 1017,3 hPa 0,0 mm 0,0 km/h (0 Bft) N 1,00 h 0,2 mm 0,0 UV-I 290 W/m 15,4 C 0,2 km/h (0 Bft)
01.08.2022 20:00 22,5 C 60 % 1017,5 hPa 0,0 mm 0,0 km/h (0 Bft) N 0,33 h 0,2 mm 0,0 UV-I 58 W/m 14,4 C 0,0 km/h (0 Bft)
01.08.2022 21:00 21,0 C 64 % 1018,1 hPa 0,0 mm 0,0 km/h (0 Bft) N 0,08 h 0,0 mm 0,0 UV-I 8 W/m 13,8 C 0,0 km/h (0 Bft)
01.08.2022 22:00 19,3 C 70 % 1018,5 hPa 0,0 mm 0,0 km/h (0 Bft) N 0,00 h 0,0 mm 0,0 UV-I 0 W/m 13,6 C 0,0 km/h (0 Bft)
01.08.2022 23:00 17,9 C 75 % 1018,6 hPa 0,0 mm 0,0 km/h (0 Bft) N 0,00 h 0,0 mm 0,0 UV-I 0 W/m 13,5 C 0,0 km/h (0 Bft)
02.08.2022 00:00 16,8 C 80 % 1018,8 hPa 0,0 mm 0,0 km/h (0 Bft) N 0,00 h 0,0 mm 0,0 UV-I 0 W/m 13,3 C 0,0 km/h (0 Bft)
02.08.2022 01:00 16,3 C 82 % 1018,7 hPa 0,0 mm 0,0 km/h (0 Bft) N 0,00 h 0,0 mm 0,0 UV-I 0 W/m 13,2 C 0,0 km/h (0 Bft)
02.08.2022 02:00 15,8 C 83 % 1018,7 hPa 0,0 mm 0,0 km/h (0 Bft) N 0,00 h 0,0 mm 0,0 UV-I 0 W/m 12,9 C 0,0 km/h (0 Bft)
02.08.2022 03:00 15,6 C 84 % 1018,5 hPa 0,0 mm 0,0 km/h (0 Bft) N 0,00 h 0,0 mm 0,0 UV-I 0 W/m 12,9 C 0,0 km/h (0 Bft)
02.08.2022 04:00 15,6 C 84 % 1018,2 hPa 0,0 mm 0,0 km/h (0 Bft) N 0,00 h 0,0 mm 0,0 UV-I 0 W/m 12,9 C 0,0 km/h (0 Bft)
02.08.2022 05:00 15,1 C 85 % 1018,0 hPa 0,0 mm 0,0 km/h (0 Bft) N 0,00 h 0,0 mm 0,0 UV-I 0 W/m 12,6 C 0,0 km/h (0 Bft)
02.08.2022 06:00 14,9 C 85 % 1018,0 hPa 0,0 mm 0,0 km/h (0 Bft) N 0,00 h 0,0 mm 0,0 UV-I 24 W/m 12,5 C 0,0 km/h (0 Bft)
02.08.2022 07:00 15,4 C 86 % 1018,2 hPa 0,0 mm 0,0 km/h (0 Bft) N 0,42 h 0,0 mm 0,1 UV-I 118 W/m 13,0 C 0,0 km/h (0 Bft)
02.08.2022 08:00 17,1 C 82 % 1018,1 hPa 0,0 mm 0,1 km/h (0 Bft) N 1,00 h 0,0 mm 0,4 UV-I 286 W/m 14,1 C 1,7 km/h (1 Bft)
02.08.2022 09:00 19,7 C 75 % 1018,0 hPa 0,0 mm 0,0 km/h (0 Bft) N 1,00 h 0,0 mm 0,0 UV-I 513 W/m 15,1 C 0,9 km/h (0 Bft)
02.08.2022 10:00 22,6 C 65 % 1017,7 hPa 0,0 mm 1,5 km/h (1 Bft) SW 1,00 h 0,1 mm 0,0 UV-I 741 W/m 15,7 C 8,5 km/h (2 Bft)
02.08.2022 11:00 25,1 C 56 % 1017,4 hPa 0,0 mm 1,4 km/h (1 Bft) N-NW 0,83 h 0,4 mm 0,0 UV-I 731 W/m 15,7 C 9,4 km/h (2 Bft)
02.08.2022 12:00 26,7 C 48 % 1017,1 hPa 0,0 mm 3,7 km/h (1 Bft) N-NW 0,83 h 0,4 mm 0,1 UV-I 816 W/m 14,8 C 15,5 km/h (3 Bft)
02.08.2022 13:00 27,9 C 45 % 1016,8 hPa 0,0 mm 3,7 km/h (1 Bft) N-NW 1,00 h 0,5 mm 0,0 UV-I 947 W/m 14,8 C 16,3 km/h (3 Bft)
02.08.2022 14:00 28,0 C 44 % 1016,6 hPa 0,0 mm 4,8 km/h (1 Bft) NW 0,67 h 0,5 mm 0,0 UV-I 579 W/m 14,6 C 17,9 km/h (3 Bft)
02.08.2022 15:00 28,9 C 41 % 1016,3 hPa 0,0 mm 7,0 km/h (2 Bft) NW 1,00 h 0,4 mm 0,0 UV-I 771 W/m 14,4 C 17,8 km/h (3 Bft)
02.08.2022 16:00 29,4 C 40 % 1015,9 hPa 0,0 mm 2,9 km/h (1 Bft) W-SW 1,00 h 0,5 mm 0,0 UV-I 714 W/m 14,4 C 14,4 km/h (3 Bft)
02.08.2022 17:00 30,2 C 38 % 1015,4 hPa 0,0 mm 2,7 km/h (1 Bft) NW 1,00 h 0,4 mm 0,0 UV-I 632 W/m 14,0 C 14,4 km/h (3 Bft)
02.08.2022 18:00 29,5 C 39 % 1015,1 hPa 0,0 mm 1,9 km/h (1 Bft) N-NW 1,00 h 0,4 mm 0,0 UV-I 418 W/m 14,0 C 12,4 km/h (3 Bft)
02.08.2022 19:00 28,9 C 42 % 1014,9 hPa 0,0 mm 1,8 km/h (1 Bft) NW 1,00 h 0,2 mm 0,0 UV-I 258 W/m 14,8 C 12,4 km/h (3 Bft)
02.08.2022 20:00 28,0 C 45 % 1014,9 hPa 0,0 mm 0,4 km/h (0 Bft) NW 0,33 h 0,2 mm 0,0 UV-I 59 W/m 14,8 C 4,6 km/h (1 Bft)
02.08.2022 21:00 25,0 C 55 % 1015,0 hPa 0,0 mm 0,0 km/h (0 Bft) N 0,08 h 0,1 mm 0,0 UV-I 8 W/m 15,2 C 0,0 km/h (0 Bft)
02.08.2022 22:00 22,7 C 61 % 1015,2 hPa 0,0 mm 0,0 km/h (0 Bft) N 0,00 h 0,0 mm 0,0 UV-I 0 W/m 14,9 C 0,0 km/h (0 Bft)
02.08.2022 23:00 21,6 C 66 % 1015,3 hPa 0,0 mm 0,0 km/h (0 Bft) N 0,00 h 0,0 mm 0,0 UV-I 0 W/m 14,9 C 0,0 km/h (0 Bft)
03.08.2022 00:00 20,9 C 70 % 1015,5 hPa 0,0 mm 0,0 km/h (0 Bft) N 0,00 h 0,0 mm 0,0 UV-I 0 W/m 15,2 C 0,0 km/h (0 Bft)
03.08.2022 01:00 20,2 C 73 % 1015,6 hPa 0,0 mm 0,0 km/h (0 Bft) N 0,00 h 0,0 mm 0,0 UV-I 0 W/m 15,2 C 0,0 km/h (0 Bft)
03.08.2022 02:00 20,6 C 71 % 1015,3 hPa 0,0 mm 0,0 km/h (0 Bft) N 0,00 h 0,0 mm 0,0 UV-I 0 W/m 15,0 C 0,0 km/h (0 Bft)
03.08.2022 03:00 20,4 C 70 % 1015,1 hPa 0,0 mm 0,0 km/h (0 Bft) N 0,00 h 0,0 mm 0,0 UV-I 0 W/m 14,8 C 0,0 km/h (0 Bft)
03.08.2022 04:00 19,4 C 75 % 1014,9 hPa 0,0 mm 0,0 km/h (0 Bft) N 0,00 h 0,0 mm 0,0 UV-I 0 W/m 14,7 C 0,0 km/h (0 Bft)
03.08.2022 05:00 18,6 C 78 % 1014,9 hPa 0,0 mm 0,0 km/h (0 Bft) N 0,00 h 0,0 mm 0,0 UV-I 0 W/m 14,7 C 0,0 km/h (0 Bft)
03.08.2022 06:00 18,5 C 79 % 1015,1 hPa 0,0 mm 0,0 km/h (0 Bft) N 0,17 h 0,0 mm 0,0 UV-I 30 W/m 14,8 C 0,0 km/h (0 Bft)
03.08.2022 07:00 19,0 C 79 % 1015,3 hPa 0,0 mm 0,0 km/h (0 Bft) N 0,83 h 0,0 mm 0,0 UV-I 132 W/m 15,2 C 0,0 km/h (0 Bft)
03.08.2022 08:00 20,8 C 73 % 1015,4 hPa 0,0 mm 0,0 km/h (0 Bft) N 1,00 h 0,0 mm 0,0 UV-I 305 W/m 15,8 C 0,0 km/h (0 Bft)
03.08.2022 09:00 23,3 C 66 % 1015,4 hPa 0,0 mm 0,0 km/h (0 Bft) N 1,00 h 0,0 mm 0,5 UV-I 532 W/m 16,4 C 0,0 km/h (0 Bft)
03.08.2022 10:00 25,6 C 58 % 1015,3 hPa 0,0 mm 0,0 km/h (0 Bft) N 1,00 h 0,1 mm 0,0 UV-I 778 W/m 16,8 C 0,0 km/h (0 Bft)
03.08.2022 11:00 28,2 C 48 % 1015,3 hPa 0,0 mm 1,2 km/h (1 Bft) N-NW 1,00 h 0,4 mm 0,0 UV-I 933 W/m 16,1 C 8,1 km/h (2 Bft)
03.08.2022 12:00 29,7 C 43 % 1015,0 hPa 0,0 mm 1,4 km/h (1 Bft) N-NW 1,00 h 0,5 mm 0,0 UV-I 987 W/m 15,6 C 9,8 km/h (2 Bft)
03.08.2022 13:00 31,1 C 39 % 1014,5 hPa 0,0 mm 1,1 km/h (1 Bft) NW 1,00 h 0,5 mm 0,0 UV-I 1095 W/m 15,3 C 7,6 km/h (2 Bft)
03.08.2022 14:00 31,3 C 37 % 1014,3 hPa 0,0 mm 0,3 km/h (0 Bft) N 0,67 h 0,6 mm 0,0 UV-I 672 W/m 14,9 C 3,1 km/h (1 Bft)
03.08.2022 15:00 32,5 C 35 % 1014,0 hPa 0,0 mm 0,3 km/h (0 Bft) NW 1,00 h 0,4 mm 0,0 UV-I 976 W/m 15,1 C 3,3 km/h (1 Bft)
03.08.2022 16:00 33,2 C 33 % 1013,5 hPa 0,0 mm 1,0 km/h (0 Bft) W-NW 1,00 h 0,5 mm 0,0 UV-I 838 W/m 14,8 C 7,0 km/h (2 Bft)
03.08.2022 17:00 32,7 C 33 % 1013,0 hPa 0,0 mm 0,5 km/h (0 Bft) NW 1,00 h 0,5 mm 0,0 UV-I 686 W/m 14,4 C 3,3 km/h (1 Bft)
03.08.2022 18:00 32,5 C 33 % 1012,6 hPa 0,0 mm 0,2 km/h (0 Bft) N 1,00 h 0,4 mm 0,0 UV-I 497 W/m 14,0 C 1,7 km/h (1 Bft)
03.08.2022 19:00 31,7 C 33 % 1012,5 hPa 0,0 mm 0,0 km/h (0 Bft) N 1,00 h 0,3 mm 0,0 UV-I 238 W/m 13,5 C 0,0 km/h (0 Bft)
03.08.2022 20:00 30,9 C 35 % 1012,5 hPa 0,0 mm 0,0 km/h (0 Bft) N 0,42 h 0,1 mm 0,0 UV-I 55 W/m 13,7 C 0,0 km/h (0 Bft)
03.08.2022 21:00 28,1 C 46 % 1012,7 hPa 0,0 mm 0,0 km/h (0 Bft) N 0,00 h 0,1 mm 0,0 UV-I 7 W/m 15,4 C 0,0 km/h (0 Bft)
03.08.2022 22:00 25,0 C 56 % 1012,8 hPa 0,0 mm 0,0 km/h (0 Bft) N 0,00 h 0,0 mm 0,0 UV-I 0 W/m 15,4 C 0,0 km/h (0 Bft)
03.08.2022 23:00 23,4 C 62 % 1012,7 hPa 0,0 mm 0,0 km/h (0 Bft) N 0,00 h 0,0 mm 0,0 UV-I 0 W/m 15,6 C 0,0 km/h (0 Bft)
04.08.2022 00:00 22,2 C 66 % 1012,7 hPa 0,0 mm 0,0 km/h (0 Bft) N 0,00 h 0,0 mm 0,0 UV-I 0 W/m 15,6 C 0,0 km/h (0 Bft)
04.08.2022 01:00 21,4 C 69 % 1012,6 hPa 0,0 mm 0,0 km/h (0 Bft) N 0,00 h 0,0 mm 0,0 UV-I 0 W/m 15,5 C 0,0 km/h (0 Bft)
04.08.2022 02:00 20,7 C 71 % 1012,3 hPa 0,0 mm 0,0 km/h (0 Bft) N 0,00 h 0,0 mm 0,0 UV-I 0 W/m 15,3 C 0,0 km/h (0 Bft)
04.08.2022 03:00 20,2 C 73 % 1012,1 hPa 0,0 mm 0,0 km/h (0 Bft) N 0,00 h 0,0 mm 0,0 UV-I 0 W/m 15,2 C 0,0 km/h (0 Bft)
04.08.2022 04:00 20,0 C 76 % 1011,8 hPa 0,0 mm 0,0 km/h (0 Bft) N 0,00 h 0,0 mm 0,0 UV-I 0 W/m 15,5 C 0,0 km/h (0 Bft)
04.08.2022 05:00 19,6 C 77 % 1011,5 hPa 0,0 mm 0,0 km/h (0 Bft) N 0,00 h 0,0 mm 0,0 UV-I 0 W/m 15,4 C 0,0 km/h (0 Bft)
04.08.2022 06:00 19,7 C 78 % 1011,5 hPa 0,0 mm 0,0 km/h (0 Bft) N 0,08 h 0,0 mm 0,0 UV-I 15 W/m 15,7 C 0,0 km/h (0 Bft)
04.08.2022 07:00 20,4 C 75 % 1011,7 hPa 0,0 mm 0,0 km/h (0 Bft) N 0,00 h 0,0 mm 0,0 UV-I 40 W/m 15,9 C 0,0 km/h (0 Bft)
04.08.2022 08:00 22,1 C 72 % 1011,6 hPa 0,0 mm 0,0 km/h (0 Bft) N 0,00 h 0,0 mm 0,3 UV-I 66 W/m 16,7 C 0,0 km/h (0 Bft)
04.08.2022 09:00 24,7 C 64 % 1011,5 hPa 0,0 mm 0,0 km/h (0 Bft) N 0,17 h 0,1 mm 0,0 UV-I 172 W/m 17,3 C 0,7 km/h (0 Bft)
04.08.2022 10:00 27,1 C 56 % 1011,5 hPa 0,0 mm 0,1 km/h (0 Bft) N 1,00 h 0,1 mm 0,0 UV-I 771 W/m 17,5 C 1,8 km/h (1 Bft)
04.08.2022 11:00 30,6 C 45 % 1011,4 hPa 0,0 mm 0,2 km/h (0 Bft) N 0,92 h 0,4 mm 0,0 UV-I 710 W/m 17,1 C 2,2 km/h (1 Bft)
04.08.2022 12:00 32,0 C 37 % 1011,6 hPa 0,0 mm 0,9 km/h (0 Bft) W-NW 0,33 h 0,4 mm 0,0 UV-I 496 W/m 15,3 C 8,1 km/h (2 Bft)
04.08.2022 13:00 31,8 C 38 % 1011,9 hPa 0,0 mm 3,6 km/h (1 Bft) N-NW 0,42 h 0,3 mm 0,0 UV-I 378 W/m 15,8 C 19,6 km/h (3 Bft)
04.08.2022 14:00 30,2 C 44 % 1012,1 hPa 0,0 mm 0,4 km/h (0 Bft) N-NW 0,25 h 0,2 mm 0,0 UV-I 407 W/m 16,6 C 5,0 km/h (1 Bft)
04.08.2022 15:00 30,4 C 44 % 1012,0 hPa 0,0 mm 0,0 km/h (0 Bft) N 0,50 h 0,3 mm 0,0 UV-I 407 W/m 16,9 C 1,7 km/h (1 Bft)
04.08.2022 16:00 29,6 C 46 % 1012,0 hPa 0,0 mm 0,1 km/h (0 Bft) N 0,00 h 0,2 mm 0,0 UV-I 180 W/m 16,7 C 1,1 km/h (1 Bft)
04.08.2022 17:00 28,3 C 52 % 1012,0 hPa 0,0 mm 0,0 km/h (0 Bft) N 0,00 h 0,1 mm 0,0 UV-I 106 W/m 17,5 C 0,0 km/h (0 Bft)
04.08.2022 18:00 27,6 C 55 % 1012,1 hPa 0,0 mm 0,0 km/h (0 Bft) N 0,08 h 0,1 mm 0,0 UV-I 150 W/m 17,8 C 0,0 km/h (0 Bft)
04.08.2022 19:00 28,1 C 54 % 1011,8 hPa 0,0 mm 0,0 km/h (0 Bft) N 1,00 h 0,1 mm 0,0 UV-I 268 W/m 17,9 C 0,0 km/h (0 Bft)
04.08.2022 20:00 26,5 C 62 % 1012,0 hPa 0,0 mm 0,0 km/h (0 Bft) N 0,08 h 0,2 mm 0,0 UV-I 35 W/m 18,5 C 0,0 km/h (0 Bft)
04.08.2022 21:00 24,7 C 66 % 1012,5 hPa 0,0 mm 0,0 km/h (0 Bft) N 0,00 h 0,0 mm 0,0 UV-I 5 W/m 17,8 C 0,0 km/h (0 Bft)
04.08.2022 22:00 23,6 C 70 % 1013,3 hPa 0,0 mm 0,0 km/h (0 Bft) N 0,00 h 0,0 mm 0,0 UV-I 0 W/m 17,8 C 0,0 km/h (0 Bft)
04.08.2022 23:00 23,0 C 71 % 1014,2 hPa 0,0 mm 0,0 km/h (0 Bft) N 0,00 h 0,0 mm 0,0 UV-I 0 W/m 17,5 C 0,0 km/h (0 Bft)
05.08.2022 00:00 22,1 C 69 % 1014,3 hPa 0,3 mm 0,0 km/h (0 Bft) N 0,00 h 0,0 mm 0,0 UV-I 0 W/m 16,2 C 0,4 km/h (0 Bft)
05.08.2022 01:00 19,9 C 81 % 1013,0 hPa 0,0 mm 0,0 km/h (0 Bft) N 0,00 h 0,0 mm 0,0 UV-I 0 W/m 16,6 C 0,0 km/h (0 Bft)
05.08.2022 02:00 19,2 C 84 % 1012,7 hPa 0,0 mm 0,0 km/h (0 Bft) N 0,00 h 0,0 mm 0,0 UV-I 0 W/m 16,4 C 0,0 km/h (0 Bft)
05.08.2022 03:00 18,2 C 86 % 1013,0 hPa 0,0 mm 0,0 km/h (0 Bft) N 0,00 h 0,0 mm 0,0 UV-I 0 W/m 15,9 C 0,0 km/h (0 Bft)
05.08.2022 04:00 18,0 C 88 % 1014,1 hPa 0,5 mm 0,1 km/h (0 Bft) N 0,00 h 0,0 mm 0,0 UV-I 0 W/m 16,0 C 2,4 km/h (1 Bft)
05.08.2022 05:00 17,7 C 90 % 1013,7 hPa 0,3 mm 0,1 km/h (0 Bft) N 0,00 h 0,0 mm 0,0 UV-I 0 W/m 16,0 C 1,8 km/h (1 Bft)
05.08.2022 06:00 17,8 C 90 % 1013,3 hPa 0,3 mm 0,0 km/h (0 Bft) N 0,00 h 0,0 mm 0,0 UV-I 6 W/m 16,1 C 1,5 km/h (1 Bft)
05.08.2022 07:00 17,8 C 90 % 1013,7 hPa 0,0 mm 0,0 km/h (0 Bft) N 0,00 h 0,0 mm 0,0 UV-I 34 W/m 16,1 C 0,4 km/h (0 Bft)
05.08.2022 08:00 17,9 C 90 % 1014,2 hPa 0,3 mm 0,0 km/h (0 Bft) N 0,00 h 0,0 mm 0,1 UV-I 49 W/m 16,3 C 0,2 km/h (0 Bft)
05.08.2022 09:00 17,6 C 90 % 1014,9 hPa 0,0 mm 0,0 km/h (0 Bft) N 0,00 h 0,0 mm 0,0 UV-I 34 W/m 15,9 C 0,2 km/h (0 Bft)
05.08.2022 10:00 16,9 C 91 % 1015,7 hPa 0,0 mm 0,0 km/h (0 Bft) N 0,00 h 0,0 mm 0,1 UV-I 47 W/m 15,3 C 0,2 km/h (0 Bft)
05.08.2022 11:00 16,4 C 91 % 1016,5 hPa 0,0 mm 0,0 km/h (0 Bft) N 0,00 h 0,0 mm 0,0 UV-I 110 W/m 14,9 C 0,0 km/h (0 Bft)
05.08.2022 12:00 17,2 C 87 % 1017,3 hPa 0,0 mm 0,0 km/h (0 Bft) N 0,33 h 0,1 mm 0,3 UV-I 343 W/m 15,0 C 0,0 km/h (0 Bft)
05.08.2022 13:00 19,3 C 78 % 1017,9 hPa 0,0 mm 0,0 km/h (0 Bft) N 0,92 h 0,2 mm 0,3 UV-I 566 W/m 15,4 C 0,4 km/h (0 Bft)
05.08.2022 14:00 20,9 C 68 % 1018,1 hPa 0,0 mm 0,0 km/h (0 Bft) N 0,75 h 0,3 mm 0,2 UV-I 686 W/m 14,8 C 1,3 km/h (1 Bft)
05.08.2022 15:00 21,9 C 63 % 1018,6 hPa 0,0 mm 0,1 km/h (0 Bft) N 0,67 h 0,4 mm 0,0 UV-I 561 W/m 14,7 C 1,5 km/h (1 Bft)
05.08.2022 16:00 21,0 C 65 % 1019,1 hPa 0,0 mm 0,0 km/h (0 Bft) N 0,25 h 0,3 mm 0,0 UV-I 329 W/m 14,2 C 0,4 km/h (0 Bft)
05.08.2022 17:00 21,2 C 60 % 1019,3 hPa 0,0 mm 0,0 km/h (0 Bft) N 0,25 h 0,2 mm 0,0 UV-I 273 W/m 13,2 C 0,0 km/h (0 Bft)
05.08.2022 18:00 21,5 C 55 % 1019,5 hPa 0,0 mm 0,0 km/h (0 Bft) N 0,00 h 0,1 mm 0,0 UV-I 110 W/m 12,2 C 0,0 km/h (0 Bft)
05.08.2022 19:00 21,3 C 48 % 1020,1 hPa 0,0 mm 0,0 km/h (0 Bft) N 0,33 h 0,1 mm 0,0 UV-I 135 W/m 9,7 C 0,2 km/h (0 Bft)
05.08.2022 20:00 20,7 C 47 % 1020,9 hPa 0,0 mm 0,0 km/h (0 Bft) N 0,50 h 0,1 mm 0,0 UV-I 69 W/m 9,0 C 0,0 km/h (0 Bft)
05.08.2022 21:00 18,7 C 55 % 1021,7 hPa 0,0 mm 0,0 km/h (0 Bft) N 0,08 h 0,1 mm 0,0 UV-I 7 W/m 9,5 C 0,0 km/h (0 Bft)
05.08.2022 22:00 17,3 C 62 % 1022,8 hPa 0,0 mm 0,0 km/h (0 Bft) N 0,00 h 0,0 mm 0,0 UV-I 0 W/m 10,0 C 0,0 km/h (0 Bft)
05.08.2022 23:00 16,1 C 68 % 1023,5 hPa 0,0 mm 0,0 km/h (0 Bft) N 0,00 h 0,0 mm 0,0 UV-I 0 W/m 10,2 C 0,0 km/h (0 Bft)
06.08.2022 00:00 14,9 C 73 % 1023,9 hPa 0,0 mm 0,0 km/h (0 Bft) N 0,00 h 0,0 mm 0,0 UV-I 0 W/m 10,1 C 0,0 km/h (0 Bft)
06.08.2022 01:00 13,8 C 76 % 1024,6 hPa 0,0 mm 0,0 km/h (0 Bft) N 0,00 h 0,0 mm 0,0 UV-I 0 W/m 9,6 C 0,2 km/h (0 Bft)
06.08.2022 02:00 13,0 C 78 % 1025,1 hPa 0,0 mm 0,0 km/h (0 Bft) N 0,00 h 0,0 mm 0,0 UV-I 0 W/m 9,2 C 0,2 km/h (0 Bft)
06.08.2022 03:00 12,1 C 81 % 1025,5 hPa 0,0 mm 0,0 km/h (0 Bft) N 0,00 h 0,0 mm 0,0 UV-I 0 W/m 8,9 C 0,6 km/h (0 Bft)
06.08.2022 04:00 11,6 C 82 % 1025,7 hPa 0,0 mm 0,0 km/h (0 Bft) N 0,00 h 0,0 mm 0,0 UV-I 0 W/m 8,7 C 0,2 km/h (0 Bft)
06.08.2022 05:00 11,1 C 84 % 1025,9 hPa 0,0 mm 0,0 km/h (0 Bft) N 0,00 h 0,0 mm 0,0 UV-I 0 W/m 8,5 C 0,0 km/h (0 Bft)
06.08.2022 06:00 10,7 C 86 % 1026,3 hPa 0,0 mm 0,0 km/h (0 Bft) N 0,00 h 0,0 mm 0,0 UV-I 19 W/m 8,4 C 0,2 km/h (0 Bft)
06.08.2022 07:00 11,1 C 87 % 1026,9 hPa 0,0 mm 0,0 km/h (0 Bft) N 0,08 h 0,0 mm 0,0 UV-I 96 W/m 9,0 C 0,0 km/h (0 Bft)
06.08.2022 08:00 13,3 C 82 % 1027,3 hPa 0,0 mm 0,0 km/h (0 Bft) N 1,00 h 0,0 mm 0,1 UV-I 245 W/m 10,4 C 0,0 km/h (0 Bft)
06.08.2022 09:00 15,1 C 77 % 1027,6 hPa 0,0 mm 0,0 km/h (0 Bft) N 1,00 h 0,0 mm 0,0 UV-I 446 W/m 11,1 C 0,2 km/h (0 Bft)
06.08.2022 10:00 16,6 C 67 % 1027,6 hPa 0,0 mm 0,0 km/h (0 Bft) N 0,75 h 0,1 mm 0,0 UV-I 475 W/m 10,4 C 0,4 km/h (0 Bft)
06.08.2022 11:00 17,8 C 54 % 1027,6 hPa 0,0 mm 0,0 km/h (0 Bft) N 0,50 h 0,2 mm 0,3 UV-I 521 W/m 8,3 C 0,2 km/h (0 Bft)
06.08.2022 12:00 18,9 C 49 % 1027,7 hPa 0,0 mm 0,0 km/h (0 Bft) N 0,58 h 0,3 mm 0,5 UV-I 598 W/m 7,8 C 0,9 km/h (0 Bft)
06.08.2022 13:00 20,1 C 43 % 1027,3 hPa 0,0 mm 0,1 km/h (0 Bft) N 0,92 h 0,3 mm 0,4 UV-I 812 W/m 7,1 C 1,5 km/h (1 Bft)
06.08.2022 14:00 20,5 C 42 % 1027,1 hPa 0,0 mm 0,0 km/h (0 Bft) N 0,58 h 0,5 mm 0,2 UV-I 608 W/m 7,1 C 0,9 km/h (0 Bft)
06.08.2022 15:00 21,5 C 38 % 1026,7 hPa 0,0 mm 0,0 km/h (0 Bft) N 0,83 h 0,4 mm 0,0 UV-I 753 W/m 6,6 C 1,1 km/h (1 Bft)
06.08.2022 16:00 21,9 C 36 % 1026,2 hPa 0,0 mm 0,0 km/h (0 Bft) N 0,67 h 0,5 mm 0,0 UV-I 459 W/m 6,3 C 1,3 km/h (1 Bft)
06.08.2022 17:00 21,9 C 37 % 1025,8 hPa 0,0 mm 0,0 km/h (0 Bft) N 0,83 h 0,3 mm 0,0 UV-I 478 W/m 6,6 C 0,0 km/h (0 Bft)
06.08.2022 18:00 21,5 C 39 % 1025,5 hPa 0,0 mm 0,0 km/h (0 Bft) N 0,42 h 0,3 mm 0,0 UV-I 166 W/m 6,7 C 0,2 km/h (0 Bft)
06.08.2022 19:00 21,1 C 40 % 1025,4 hPa 0,0 mm 0,0 km/h (0 Bft) N 0,75 h 0,1 mm 0,0 UV-I 202 W/m 6,8 C 0,2 km/h (0 Bft)
06.08.2022 20:00 20,6 C 42 % 1025,4 hPa 0,0 mm 0,0 km/h (0 Bft) N 0,50 h 0,1 mm 0,0 UV-I 52 W/m 7,2 C 0,0 km/h (0 Bft)
06.08.2022 21:00 18,8 C 49 % 1025,7 hPa 0,0 mm 0,0 km/h (0 Bft) N 0,00 h 0,0 mm 0,0 UV-I 4 W/m 7,8 C 0,0 km/h (0 Bft)
06.08.2022 22:00 16,1 C 62 % 1026,0 hPa 0,0 mm 0,0 km/h (0 Bft) N 0,00 h 0,0 mm 0,0 UV-I 0 W/m 8,8 C 0,0 km/h (0 Bft)
06.08.2022 23:00 15,1 C 66 % 1026,1 hPa 0,0 mm 0,0 km/h (0 Bft) N 0,00 h 0,0 mm 0,0 UV-I 0 W/m 8,7 C 0,0 km/h (0 Bft)
07.08.2022 00:00 13,7 C 71 % 1026,0 hPa 0,0 mm 0,0 km/h (0 Bft) N 0,00 h 0,0 mm 0,0 UV-I 0 W/m 8,5 C 0,0 km/h (0 Bft)
07.08.2022 01:00 13,0 C 75 % 1025,8 hPa 0,0 mm 0,0 km/h (0 Bft) N 0,00 h 0,0 mm 0,0 UV-I 0 W/m 8,6 C 0,0 km/h (0 Bft)
07.08.2022 02:00 12,5 C 77 % 1025,5 hPa 0,0 mm 0,0 km/h (0 Bft) N 0,00 h 0,0 mm 0,0 UV-I 0 W/m 8,7 C 0,0 km/h (0 Bft)
07.08.2022 03:00 12,0 C 80 % 1025,2 hPa 0,0 mm 0,0 km/h (0 Bft) N 0,00 h 0,0 mm 0,0 UV-I 0 W/m 8,6 C 0,0 km/h (0 Bft)
07.08.2022 04:00 11,5 C 82 % 1025,1 hPa 0,0 mm 0,0 km/h (0 Bft) N 0,00 h 0,0 mm 0,0 UV-I 0 W/m 8,4 C 0,0 km/h (0 Bft)
07.08.2022 05:00 11,0 C 83 % 1025,0 hPa 0,0 mm 0,0 km/h (0 Bft) N 0,00 h 0,0 mm 0,0 UV-I 0 W/m 8,2 C 0,0 km/h (0 Bft)
07.08.2022 06:00 10,5 C 85 % 1025,0 hPa 0,0 mm 0,0 km/h (0 Bft) N 0,00 h 0,0 mm 0,0 UV-I 20 W/m 8,0 C 0,0 km/h (0 Bft)
07.08.2022 07:00 11,0 C 86 % 1025,3 hPa 0,0 mm 0,0 km/h (0 Bft) N 0,25 h 0,0 mm 0,1 UV-I 102 W/m 8,7 C 0,0 km/h (0 Bft)
07.08.2022 08:00 13,2 C 82 % 1025,4 hPa 0,0 mm 0,0 km/h (0 Bft) N 1,00 h 0,0 mm 0,1 UV-I 258 W/m 10,1 C 0,0 km/h (0 Bft)
07.08.2022 09:00 15,9 C 70 % 1025,3 hPa 0,0 mm 0,0 km/h (0 Bft) N 1,00 h 0,0 mm 0,3 UV-I 483 W/m 10,3 C 0,4 km/h (0 Bft)
07.08.2022 10:00 18,5 C 56 % 1025,0 hPa 0,0 mm 0,0 km/h (0 Bft) N 1,00 h 0,1 mm 0,0 UV-I 728 W/m 9,5 C 1,3 km/h (1 Bft)
07.08.2022 11:00 20,8 C 44 % 1024,7 hPa 0,0 mm 0,1 km/h (0 Bft) N 1,00 h 0,4 mm 0,6 UV-I 941 W/m 8,1 C 1,5 km/h (1 Bft)
07.08.2022 12:00 22,6 C 36 % 1024,2 hPa 0,0 mm 0,2 km/h (0 Bft) NO 1,00 h 0,5 mm 0,6 UV-I 1047 W/m 6,9 C 2,9 km/h (1 Bft)
07.08.2022 13:00 23,5 C 33 % 1023,5 hPa 0,0 mm 0,1 km/h (0 Bft) N 1,00 h 0,5 mm 0,0 UV-I 1085 W/m 6,3 C 1,8 km/h (1 Bft)
07.08.2022 14:00 24,6 C 32 % 1023,1 hPa 0,0 mm 0,0 km/h (0 Bft) N 1,00 h 0,5 mm 0,0 UV-I 1057 W/m 6,7 C 2,1 km/h (1 Bft)
07.08.2022 15:00 24,7 C 31 % 1022,6 hPa 0,0 mm 0,0 km/h (0 Bft) N 1,00 h 0,5 mm 0,0 UV-I 975 W/m 6,6 C 0,3 km/h (0 Bft)
07.08.2022 16:00 25,3 C 31 % 1022,1 hPa 0,0 mm 0,0 km/h (0 Bft) N 1,00 h 0,5 mm 0,0 UV-I 841 W/m 6,8 C 1,0 km/h (0 Bft)
07.08.2022 17:00 25,3 C 29 % 1021,7 hPa 0,0 mm 0,0 km/h (0 Bft) N 1,00 h 0,4 mm 0,0 UV-I 662 W/m 5,8 C 0,2 km/h (0 Bft)
07.08.2022 18:00 25,1 C 29 % 1021,4 hPa 0,0 mm 0,0 km/h (0 Bft) N 1,00 h 0,3 mm 0,0 UV-I 438 W/m 5,5 C 0,0 km/h (0 Bft)
07.08.2022 19:00 24,5 C 30 % 1021,4 hPa 0,0 mm 0,0 km/h (0 Bft) N 1,00 h 0,2 mm 0,0 UV-I 209 W/m 5,6 C 0,0 km/h (0 Bft)
07.08.2022 20:00 23,1 C 39 % 1021,6 hPa 0,0 mm 0,0 km/h (0 Bft) N 0,50 h 0,1 mm 0,0 UV-I 46 W/m 8,2 C 0,0 km/h (0 Bft)
07.08.2022 21:00 20,9 C 46 % 1022,3 hPa 0,0 mm 0,0 km/h (0 Bft) N 0,00 h 0,0 mm 0,0 UV-I 8 W/m 8,9 C 0,0 km/h (0 Bft)
07.08.2022 22:00 19,3 C 52 % 1022,7 hPa 0,0 mm 0,0 km/h (0 Bft) N 0,00 h 0,0 mm 0,0 UV-I 0 W/m 9,2 C 0,0 km/h (0 Bft)
07.08.2022 23:00 17,8 C 59 % 1022,8 hPa 0,0 mm 0,0 km/h (0 Bft) N 0,00 h 0,0 mm 0,0 UV-I 0 W/m 9,6 C 0,0 km/h (0 Bft)
Min-Datum _ 07.08.22 07.08.22 04.08.22 - 01.08.22 - - - - - 07.08.22 01.08.22
_ Min-Zeit 06:20 17:15 10:55 - 00:00 - - - - - 19:15 00:00
Minimum _ 10,4 C 28 % 1011,3 hPa - 0,0 km/h (0 Bft) - - - - - 5,3 C 0,0 km/h (0 Bft)
Max-Datum _ 03.08.22 05.08.22 06.08.22 05.08.22 01.08.22 - 01.08.22 03.08.22 06.08.22 03.08.22 04.08.22 02.08.22
_ Max-Zeit 16:25 10:20 12:00 04:45 01:30 - 09:25 14:05 12:05 13:35 20:20 14:45
Maximum _ 33,7 C 91 % 1027,8 hPa 0,5 mm 9,4 km/h
NW (2 Bft)
- 0,08 h 0,6 mm 1,0 UV-I 1139 W/m 18,9 C 37,8 km/h
NW (5 Bft)
Durchschnitt _ 21,2 C 63 % 1018,2 hPa #1,5 mm 0,5 km/h (0 Bft) N-NW #62:05 h #22,047 mm 0,3 UV-I 385 W/m 13,2 C 2,4 km/h (1 Bft)



© 1998 - 2022 www.pulheimwetter.de